Ship Status Report: callsign EMFH

sailwx.info

Track history (hours):
 
Tides and Currents Weather Stations Pressure Air Temp Water Temp Dewpoint Dewpoint Depression Visibility Wind Speed Wind Dir Waves Ship Positions

Callsign EMFH (name unknown)

Last reported at 2014-Jun-22 09:22 UTC. Time now 2014-Jul-23 22:10 UTC.
Position N 40°20' E 024°49'.
Warning: this ship's position is 31 days out of date.

Date/timePositionNaut miles runAvg speedWind from/ knotsBaromVisibWave heightAir tempDewpointWater temp
2014-Jun-22 09:22N 40°20' E 024°49'18 7.8
2014-Jun-22 07:04N 40°13' E 025°11'6 7.7
2014-Jun-22 06:17N 40°10' E 025°18'7 7.6
2014-Jun-22 05:21N 40°09' E 025°27'10 9.0
2014-Jun-22 04:12N 40°05' E 025°39'6 8.8
2014-Jun-22 03:28N 40°03' E 025°47'54 8.9
2014-Jun-21 21:27N 40°28' E 026°50'  
2014-Jun-15 21:23N 46°32' E 031°25'5 6.5
2014-Jun-15 20:33N 46°35' E 031°31'8 7.4
2014-Jun-15 19:32N 46°36' E 031°41'7 7.2
2014-Jun-15 18:33N 46°35' E 031°52'8 7.5
2014-Jun-15 17:33N 46°32' E 032°02'7 7.3
2014-Jun-15 16:33N 46°33' E 032°13'  
Track history (hours):
 
Tides and Currents Weather Stations Pressure Air Temp Water Temp Dewpoint Dewpoint Depression Visibility Wind Speed Wind Dir Waves Ship Positions

Callsign EMFH (name unknown)

Last reported at 2014-Jun-22 09:22 UTC. Time now 2014-Jul-23 22:10 UTC.
Position N 40°20' E 024°49'.
Warning: this ship's position is 31 days out of date.

Date/timePositionNaut miles runAvg speedWind from/ knotsBaromVisibWave heightAir tempDewpointWater temp
2014-Jun-22 09:22N 40°20' E 024°49'18 7.8
2014-Jun-22 07:04N 40°13' E 025°11'6 7.7
2014-Jun-22 06:17N 40°10' E 025°18'7 7.6
2014-Jun-22 05:21N 40°09' E 025°27'10 9.0
2014-Jun-22 04:12N 40°05' E 025°39'6 8.8
2014-Jun-22 03:28N 40°03' E 025°47'54 8.9
2014-Jun-21 21:27N 40°28' E 026°50'  
2014-Jun-15 21:23N 46°32' E 031°25'5 6.5
2014-Jun-15 20:33N 46°35' E 031°31'8 7.4
2014-Jun-15 19:32N 46°36' E 031°41'7 7.2
2014-Jun-15 18:33N 46°35' E 031°52'8 7.5
2014-Jun-15 17:33N 46°32' E 032°02'7 7.3
2014-Jun-15 16:33N 46°33' E 032°13'  

Dump ship's entire track history